sensor_id;sensor_type;location;lat;lon;timestamp;P1;durP1;ratioP1;P2;durP2;ratioP2
3625;SDS011;1827;50.534;8.316;2024-01-30T00:01:53;67.43;;;27.93;;
3625;SDS011;1827;50.534;8.316;2024-01-30T00:04:19;67.07;;;27.40;;
3625;SDS011;1827;50.534;8.316;2024-01-30T00:06:45;64.10;;;28.70;;
3625;SDS011;1827;50.534;8.316;2024-01-30T00:09:10;62.37;;;27.70;;
3625;SDS011;1827;50.534;8.316;2024-01-30T00:11:37;57.80;;;26.30;;
3625;SDS011;1827;50.534;8.316;2024-01-30T00:14:04;57.50;;;25.60;;
3625;SDS011;1827;50.534;8.316;2024-01-30T00:16:29;70.70;;;29.00;;
3625;SDS011;1827;50.534;8.316;2024-01-30T00:18:56;54.73;;;26.30;;
3625;SDS011;1827;50.534;8.316;2024-01-30T00:21:22;55.57;;;26.60;;
3625;SDS011;1827;50.534;8.316;2024-01-30T00:23:48;62.80;;;26.90;;
3625;SDS011;1827;50.534;8.316;2024-01-30T00:26:14;51.97;;;24.23;;
3625;SDS011;1827;50.534;8.316;2024-01-30T00:28:42;52.77;;;24.43;;
3625;SDS011;1827;50.534;8.316;2024-01-30T00:31:08;63.63;;;25.77;;
3625;SDS011;1827;50.534;8.316;2024-01-30T00:33:40;62.07;;;26.20;;
3625;SDS011;1827;50.534;8.316;2024-01-30T00:36:07;53.37;;;23.90;;
3625;SDS011;1827;50.534;8.316;2024-01-30T00:38:34;52.43;;;25.00;;
3625;SDS011;1827;50.534;8.316;2024-01-30T00:41:00;56.93;;;23.77;;
3625;SDS011;1827;50.534;8.316;2024-01-30T00:43:27;46.77;;;22.63;;
3625;SDS011;1827;50.534;8.316;2024-01-30T00:45:53;54.70;;;23.60;;
3625;SDS011;1827;50.534;8.316;2024-01-30T00:48:19;52.47;;;24.23;;
3625;SDS011;1827;50.534;8.316;2024-01-30T00:50:45;56.77;;;25.13;;
3625;SDS011;1827;50.534;8.316;2024-01-30T00:53:11;57.60;;;26.40;;
3625;SDS011;1827;50.534;8.316;2024-01-30T00:55:37;57.10;;;26.73;;
3625;SDS011;1827;50.534;8.316;2024-01-30T00:58:02;54.43;;;26.27;;
3625;SDS011;1827;50.534;8.316;2024-01-30T01:00:28;58.77;;;25.67;;
3625;SDS011;1827;50.534;8.316;2024-01-30T01:02:54;54.80;;;24.07;;
3625;SDS011;1827;50.534;8.316;2024-01-30T01:05:20;52.70;;;24.80;;
3625;SDS011;1827;50.534;8.316;2024-01-30T01:07:46;51.07;;;22.93;;
3625;SDS011;1827;50.534;8.316;2024-01-30T01:10:14;54.67;;;24.60;;
3625;SDS011;1827;50.534;8.316;2024-01-30T01:12:42;54.17;;;24.13;;
3625;SDS011;1827;50.534;8.316;2024-01-30T01:15:08;51.27;;;23.80;;
3625;SDS011;1827;50.534;8.316;2024-01-30T01:17:35;51.10;;;24.20;;
3625;SDS011;1827;50.534;8.316;2024-01-30T01:20:02;53.77;;;25.10;;
3625;SDS011;1827;50.534;8.316;2024-01-30T01:22:28;54.20;;;24.30;;
3625;SDS011;1827;50.534;8.316;2024-01-30T01:24:54;50.20;;;24.23;;
3625;SDS011;1827;50.534;8.316;2024-01-30T01:27:20;53.30;;;23.60;;
3625;SDS011;1827;50.534;8.316;2024-01-30T01:29:46;55.00;;;25.43;;
3625;SDS011;1827;50.534;8.316;2024-01-30T01:32:12;54.53;;;24.50;;
3625;SDS011;1827;50.534;8.316;2024-01-30T01:34:37;53.57;;;25.00;;
3625;SDS011;1827;50.534;8.316;2024-01-30T01:37:03;48.97;;;23.87;;
3625;SDS011;1827;50.534;8.316;2024-01-30T01:39:29;49.87;;;24.50;;
3625;SDS011;1827;50.534;8.316;2024-01-30T01:41:55;53.27;;;25.20;;
3625;SDS011;1827;50.534;8.316;2024-01-30T01:44:21;51.60;;;24.67;;
3625;SDS011;1827;50.534;8.316;2024-01-30T01:46:46;52.20;;;23.40;;
3625;SDS011;1827;50.534;8.316;2024-01-30T01:49:13;51.17;;;22.90;;
3625;SDS011;1827;50.534;8.316;2024-01-30T01:51:39;51.53;;;23.67;;
3625;SDS011;1827;50.534;8.316;2024-01-30T01:54:07;50.13;;;23.07;;
3625;SDS011;1827;50.534;8.316;2024-01-30T01:56:34;51.43;;;24.67;;
3625;SDS011;1827;50.534;8.316;2024-01-30T01:59:04;54.27;;;24.10;;
3625;SDS011;1827;50.534;8.316;2024-01-30T02:01:33;56.90;;;25.03;;
3625;SDS011;1827;50.534;8.316;2024-01-30T02:03:59;59.60;;;28.60;;
3625;SDS011;1827;50.534;8.316;2024-01-30T02:06:26;55.50;;;26.47;;
3625;SDS011;1827;50.534;8.316;2024-01-30T02:08:52;57.00;;;27.50;;
3625;SDS011;1827;50.534;8.316;2024-01-30T02:11:17;56.83;;;25.50;;
3625;SDS011;1827;50.534;8.316;2024-01-30T02:56:22;53.67;;;24.40;;
3625;SDS011;1827;50.534;8.316;2024-01-30T02:58:48;46.70;;;21.73;;
3625;SDS011;1827;50.534;8.316;2024-01-30T03:01:14;50.70;;;23.90;;
3625;SDS011;1827;50.534;8.316;2024-01-30T03:03:39;61.10;;;25.03;;
3625;SDS011;1827;50.534;8.316;2024-01-30T03:06:06;45.47;;;21.87;;
3625;SDS011;1827;50.534;8.316;2024-01-30T03:08:32;54.93;;;24.10;;
3625;SDS011;1827;50.534;8.316;2024-01-30T03:10:59;50.80;;;24.20;;
3625;SDS011;1827;50.534;8.316;2024-01-30T03:13:25;55.23;;;23.53;;
3625;SDS011;1827;50.534;8.316;2024-01-30T03:15:51;52.70;;;23.83;;
3625;SDS011;1827;50.534;8.316;2024-01-30T03:18:17;44.43;;;22.37;;
3625;SDS011;1827;50.534;8.316;2024-01-30T03:20:43;51.93;;;24.20;;
3625;SDS011;1827;50.534;8.316;2024-01-30T03:23:08;47.03;;;22.33;;
3625;SDS011;1827;50.534;8.316;2024-01-30T03:25:34;52.30;;;23.90;;
3625;SDS011;1827;50.534;8.316;2024-01-30T03:28:00;49.83;;;22.43;;
3625;SDS011;1827;50.534;8.316;2024-01-30T03:30:25;56.10;;;24.00;;
3625;SDS011;1827;50.534;8.316;2024-01-30T03:32:51;54.87;;;25.90;;
3625;SDS011;1827;50.534;8.316;2024-01-30T03:35:18;61.77;;;27.53;;
3625;SDS011;1827;50.534;8.316;2024-01-30T03:37:44;58.90;;;27.73;;
3625;SDS011;1827;50.534;8.316;2024-01-30T03:40:09;58.03;;;26.33;;
3625;SDS011;1827;50.534;8.316;2024-01-30T03:42:35;54.50;;;25.40;;
3625;SDS011;1827;50.534;8.316;2024-01-30T03:45:01;53.87;;;26.60;;
3625;SDS011;1827;50.534;8.316;2024-01-30T03:47:27;54.23;;;25.27;;
3625;SDS011;1827;50.534;8.316;2024-01-30T03:49:53;58.83;;;25.00;;
3625;SDS011;1827;50.534;8.316;2024-01-30T03:52:18;53.80;;;24.10;;
3625;SDS011;1827;50.534;8.316;2024-01-30T03:54:44;51.67;;;23.80;;
3625;SDS011;1827;50.534;8.316;2024-01-30T03:57:10;53.07;;;25.30;;
3625;SDS011;1827;50.534;8.316;2024-01-30T03:59:36;55.37;;;24.73;;
3625;SDS011;1827;50.534;8.316;2024-01-30T04:02:02;48.80;;;23.70;;
3625;SDS011;1827;50.534;8.316;2024-01-30T04:04:27;46.20;;;22.00;;
3625;SDS011;1827;50.534;8.316;2024-01-30T04:06:53;48.70;;;23.57;;
3625;SDS011;1827;50.534;8.316;2024-01-30T04:09:19;56.93;;;24.13;;
3625;SDS011;1827;50.534;8.316;2024-01-30T04:11:45;56.10;;;24.87;;
3625;SDS011;1827;50.534;8.316;2024-01-30T04:14:10;51.57;;;23.90;;
3625;SDS011;1827;50.534;8.316;2024-01-30T04:16:36;49.30;;;23.63;;
3625;SDS011;1827;50.534;8.316;2024-01-30T04:19:02;49.77;;;23.67;;
3625;SDS011;1827;50.534;8.316;2024-01-30T04:21:27;54.73;;;25.33;;
3625;SDS011;1827;50.534;8.316;2024-01-30T04:23:53;52.90;;;24.80;;
3625;SDS011;1827;50.534;8.316;2024-01-30T04:26:20;51.40;;;24.30;;
3625;SDS011;1827;50.534;8.316;2024-01-30T04:28:45;49.67;;;23.77;;
3625;SDS011;1827;50.534;8.316;2024-01-30T04:31:11;51.33;;;23.17;;
3625;SDS011;1827;50.534;8.316;2024-01-30T04:33:37;47.07;;;22.80;;
3625;SDS011;1827;50.534;8.316;2024-01-30T04:36:03;47.03;;;22.80;;
3625;SDS011;1827;50.534;8.316;2024-01-30T04:38:34;46.67;;;22.47;;
3625;SDS011;1827;50.534;8.316;2024-01-30T04:40:59;43.60;;;20.77;;
3625;SDS011;1827;50.534;8.316;2024-01-30T04:43:25;48.30;;;21.67;;
3625;SDS011;1827;50.534;8.316;2024-01-30T04:45:51;48.90;;;22.80;;
3625;SDS011;1827;50.534;8.316;2024-01-30T04:48:17;50.40;;;22.57;;
3625;SDS011;1827;50.534;8.316;2024-01-30T04:50:42;48.70;;;22.97;;
3625;SDS011;1827;50.534;8.316;2024-01-30T04:53:08;47.87;;;21.87;;
3625;SDS011;1827;50.534;8.316;2024-01-30T04:55:34;48.10;;;21.63;;
3625;SDS011;1827;50.534;8.316;2024-01-30T04:58:00;46.10;;;21.80;;
3625;SDS011;1827;50.534;8.316;2024-01-30T05:00:26;46.03;;;21.97;;
3625;SDS011;1827;50.534;8.316;2024-01-30T05:02:52;47.07;;;21.20;;
3625;SDS011;1827;50.534;8.316;2024-01-30T05:05:17;43.97;;;20.43;;
3625;SDS011;1827;50.534;8.316;2024-01-30T05:07:43;46.53;;;20.30;;
3625;SDS011;1827;50.534;8.316;2024-01-30T05:10:09;48.67;;;22.87;;
3625;SDS011;1827;50.534;8.316;2024-01-30T05:12:34;50.10;;;22.47;;
3625;SDS011;1827;50.534;8.316;2024-01-30T05:15:00;48.97;;;23.00;;
3625;SDS011;1827;50.534;8.316;2024-01-30T05:17:26;51.77;;;24.03;;
3625;SDS011;1827;50.534;8.316;2024-01-30T05:19:52;51.90;;;23.27;;
3625;SDS011;1827;50.534;8.316;2024-01-30T05:22:17;50.87;;;23.13;;
3625;SDS011;1827;50.534;8.316;2024-01-30T05:24:44;50.70;;;22.70;;
3625;SDS011;1827;50.534;8.316;2024-01-30T05:27:10;52.33;;;24.80;;
3625;SDS011;1827;50.534;8.316;2024-01-30T05:29:39;51.13;;;22.67;;
3625;SDS011;1827;50.534;8.316;2024-01-30T05:32:05;45.10;;;22.50;;
3625;SDS011;1827;50.534;8.316;2024-01-30T05:34:31;51.10;;;22.63;;
3625;SDS011;1827;50.534;8.316;2024-01-30T05:36:57;50.87;;;23.40;;
3625;SDS011;1827;50.534;8.316;2024-01-30T05:39:23;50.13;;;23.10;;
3625;SDS011;1827;50.534;8.316;2024-01-30T05:41:48;58.77;;;25.03;;
3625;SDS011;1827;50.534;8.316;2024-01-30T05:44:14;56.63;;;24.00;;
3625;SDS011;1827;50.534;8.316;2024-01-30T05:46:40;49.30;;;22.00;;
3625;SDS011;1827;50.534;8.316;2024-01-30T05:49:05;56.07;;;24.67;;
3625;SDS011;1827;50.534;8.316;2024-01-30T05:51:31;50.77;;;22.77;;
3625;SDS011;1827;50.534;8.316;2024-01-30T05:53:57;55.70;;;24.97;;
3625;SDS011;1827;50.534;8.316;2024-01-30T05:56:22;49.20;;;24.10;;
3625;SDS011;1827;50.534;8.316;2024-01-30T05:58:48;51.50;;;23.77;;
3625;SDS011;1827;50.534;8.316;2024-01-30T06:01:15;46.13;;;21.37;;
3625;SDS011;1827;50.534;8.316;2024-01-30T06:03:41;57.77;;;24.40;;
3625;SDS011;1827;50.534;8.316;2024-01-30T06:06:08;58.53;;;24.60;;
3625;SDS011;1827;50.534;8.316;2024-01-30T06:08:34;69.30;;;27.60;;
3625;SDS011;1827;50.534;8.316;2024-01-30T06:11:00;78.90;;;29.13;;
3625;SDS011;1827;50.534;8.316;2024-01-30T06:13:26;71.77;;;28.27;;
3625;SDS011;1827;50.534;8.316;2024-01-30T06:15:52;74.93;;;26.97;;
3625;SDS011;1827;50.534;8.316;2024-01-30T06:18:17;75.63;;;27.40;;
3625;SDS011;1827;50.534;8.316;2024-01-30T06:20:43;104.33;;;29.47;;
3625;SDS011;1827;50.534;8.316;2024-01-30T06:23:09;63.07;;;26.10;;
3625;SDS011;1827;50.534;8.316;2024-01-30T06:25:35;63.00;;;25.20;;
3625;SDS011;1827;50.534;8.316;2024-01-30T06:28:00;55.50;;;23.40;;
3625;SDS011;1827;50.534;8.316;2024-01-30T06:30:26;76.83;;;26.17;;
3625;SDS011;1827;50.534;8.316;2024-01-30T06:32:52;74.57;;;24.97;;
3625;SDS011;1827;50.534;8.316;2024-01-30T06:35:17;93.57;;;25.80;;
3625;SDS011;1827;50.534;8.316;2024-01-30T06:37:43;81.00;;;26.53;;
3625;SDS011;1827;50.534;8.316;2024-01-30T06:40:09;79.00;;;27.67;;
3625;SDS011;1827;50.534;8.316;2024-01-30T06:42:35;76.80;;;26.20;;
3625;SDS011;1827;50.534;8.316;2024-01-30T06:45:01;119.57;;;28.40;;
3625;SDS011;1827;50.534;8.316;2024-01-30T06:47:26;57.23;;;25.00;;
3625;SDS011;1827;50.534;8.316;2024-01-30T06:49:53;112.10;;;27.57;;
3625;SDS011;1827;50.534;8.316;2024-01-30T06:52:19;113.87;;;28.00;;
3625;SDS011;1827;50.534;8.316;2024-01-30T06:54:45;62.43;;;24.83;;
3625;SDS011;1827;50.534;8.316;2024-01-30T06:57:10;58.13;;;24.97;;
3625;SDS011;1827;50.534;8.316;2024-01-30T06:59:37;108.27;;;28.20;;
3625;SDS011;1827;50.534;8.316;2024-01-30T07:02:09;69.00;;;26.53;;
3625;SDS011;1827;50.534;8.316;2024-01-30T07:04:35;92.87;;;28.10;;
3625;SDS011;1827;50.534;8.316;2024-01-30T07:07:02;55.50;;;26.10;;
3625;SDS011;1827;50.534;8.316;2024-01-30T07:09:30;68.43;;;26.30;;
3625;SDS011;1827;50.534;8.316;2024-01-30T07:11:56;64.27;;;26.10;;
3625;SDS011;1827;50.534;8.316;2024-01-30T07:14:23;89.83;;;27.87;;
3625;SDS011;1827;50.534;8.316;2024-01-30T07:16:50;60.73;;;27.33;;
3625;SDS011;1827;50.534;8.316;2024-01-30T07:19:15;58.70;;;26.00;;
3625;SDS011;1827;50.534;8.316;2024-01-30T07:21:41;59.73;;;26.07;;
3625;SDS011;1827;50.534;8.316;2024-01-30T07:24:07;241.63;;;32.33;;
3625;SDS011;1827;50.534;8.316;2024-01-30T07:26:33;235.97;;;29.67;;
3625;SDS011;1827;50.534;8.316;2024-01-30T07:29:00;77.30;;;28.70;;
3625;SDS011;1827;50.534;8.316;2024-01-30T07:31:26;108.37;;;28.40;;
3625;SDS011;1827;50.534;8.316;2024-01-30T07:33:51;361.57;;;34.67;;
3625;SDS011;1827;50.534;8.316;2024-01-30T07:36:18;453.27;;;36.43;;
3625;SDS011;1827;50.534;8.316;2024-01-30T07:38:44;451.47;;;34.90;;
3625;SDS011;1827;50.534;8.316;2024-01-30T07:41:09;61.70;;;28.40;;
3625;SDS011;1827;50.534;8.316;2024-01-30T07:43:35;273.77;;;33.90;;
3625;SDS011;1827;50.534;8.316;2024-01-30T07:46:01;170.77;;;32.50;;
3625;SDS011;1827;50.534;8.316;2024-01-30T07:48:27;63.13;;;28.20;;
3625;SDS011;1827;50.534;8.316;2024-01-30T07:50:53;65.50;;;27.50;;
3625;SDS011;1827;50.534;8.316;2024-01-30T07:53:19;93.73;;;29.40;;
3625;SDS011;1827;50.534;8.316;2024-01-30T07:55:45;172.70;;;28.83;;
3625;SDS011;1827;50.534;8.316;2024-01-30T07:58:12;160.37;;;30.47;;
3625;SDS011;1827;50.534;8.316;2024-01-30T08:00:37;66.97;;;29.40;;
3625;SDS011;1827;50.534;8.316;2024-01-30T08:03:04;67.17;;;28.47;;
3625;SDS011;1827;50.534;8.316;2024-01-30T08:05:30;66.50;;;28.27;;
3625;SDS011;1827;50.534;8.316;2024-01-30T08:07:56;261.93;;;32.13;;
3625;SDS011;1827;50.534;8.316;2024-01-30T08:10:22;172.13;;;31.70;;
3625;SDS011;1827;50.534;8.316;2024-01-30T08:12:47;72.13;;;29.83;;
3625;SDS011;1827;50.534;8.316;2024-01-30T08:15:13;62.40;;;29.30;;
3625;SDS011;1827;50.534;8.316;2024-01-30T08:17:39;73.00;;;28.50;;
3625;SDS011;1827;50.534;8.316;2024-01-30T08:20:05;67.23;;;28.20;;
3625;SDS011;1827;50.534;8.316;2024-01-30T08:22:34;63.73;;;27.63;;
3625;SDS011;1827;50.534;8.316;2024-01-30T08:24:59;79.03;;;29.37;;
3625;SDS011;1827;50.534;8.316;2024-01-30T08:27:25;57.90;;;27.90;;
3625;SDS011;1827;50.534;8.316;2024-01-30T08:29:51;69.37;;;31.97;;
3625;SDS011;1827;50.534;8.316;2024-01-30T08:32:17;68.13;;;29.67;;
3625;SDS011;1827;50.534;8.316;2024-01-30T08:34:42;54.70;;;28.07;;
3625;SDS011;1827;50.534;8.316;2024-01-30T08:37:08;69.60;;;30.57;;
3625;SDS011;1827;50.534;8.316;2024-01-30T08:39:34;69.23;;;30.77;;
3625;SDS011;1827;50.534;8.316;2024-01-30T08:42:00;59.23;;;29.87;;
3625;SDS011;1827;50.534;8.316;2024-01-30T08:44:25;64.30;;;29.90;;
3625;SDS011;1827;50.534;8.316;2024-01-30T08:46:52;61.23;;;29.90;;
3625;SDS011;1827;50.534;8.316;2024-01-30T08:49:19;56.60;;;26.97;;
3625;SDS011;1827;50.534;8.316;2024-01-30T08:51:45;57.37;;;27.07;;
3625;SDS011;1827;50.534;8.316;2024-01-30T08:54:14;54.97;;;25.37;;
3625;SDS011;1827;50.534;8.316;2024-01-30T08:56:39;66.17;;;27.83;;
3625;SDS011;1827;50.534;8.316;2024-01-30T08:59:05;67.63;;;29.50;;
3625;SDS011;1827;50.534;8.316;2024-01-30T09:01:31;66.03;;;27.70;;
3625;SDS011;1827;50.534;8.316;2024-01-30T09:03:56;54.87;;;26.60;;
3625;SDS011;1827;50.534;8.316;2024-01-30T09:06:22;55.47;;;25.73;;
3625;SDS011;1827;50.534;8.316;2024-01-30T09:08:49;56.67;;;25.60;;
3625;SDS011;1827;50.534;8.316;2024-01-30T09:11:15;54.13;;;25.23;;
3625;SDS011;1827;50.534;8.316;2024-01-30T09:13:41;51.93;;;24.87;;
3625;SDS011;1827;50.534;8.316;2024-01-30T09:16:07;53.93;;;27.03;;
3625;SDS011;1827;50.534;8.316;2024-01-30T09:18:33;49.83;;;25.20;;
3625;SDS011;1827;50.534;8.316;2024-01-30T09:21:01;46.50;;;23.70;;
3625;SDS011;1827;50.534;8.316;2024-01-30T09:23:28;47.07;;;23.83;;
3625;SDS011;1827;50.534;8.316;2024-01-30T09:25:54;63.40;;;23.93;;
3625;SDS011;1827;50.534;8.316;2024-01-30T09:28:20;52.50;;;24.57;;
3625;SDS011;1827;50.534;8.316;2024-01-30T09:30:51;50.00;;;24.60;;
3625;SDS011;1827;50.534;8.316;2024-01-30T09:33:17;57.77;;;27.20;;
3625;SDS011;1827;50.534;8.316;2024-01-30T09:35:43;54.10;;;26.43;;
3625;SDS011;1827;50.534;8.316;2024-01-30T09:38:09;47.47;;;23.63;;
3625;SDS011;1827;50.534;8.316;2024-01-30T09:40:35;43.90;;;21.83;;
3625;SDS011;1827;50.534;8.316;2024-01-30T09:43:01;48.40;;;22.10;;
3625;SDS011;1827;50.534;8.316;2024-01-30T09:45:28;45.93;;;23.00;;
3625;SDS011;1827;50.534;8.316;2024-01-30T09:47:55;50.53;;;24.57;;
3625;SDS011;1827;50.534;8.316;2024-01-30T09:50:21;51.10;;;24.20;;
3625;SDS011;1827;50.534;8.316;2024-01-30T09:52:48;53.13;;;24.20;;
3625;SDS011;1827;50.534;8.316;2024-01-30T09:55:16;52.30;;;22.20;;
3625;SDS011;1827;50.534;8.316;2024-01-30T09:57:42;47.00;;;22.37;;
3625;SDS011;1827;50.534;8.316;2024-01-30T10:00:08;45.20;;;22.67;;
3625;SDS011;1827;50.534;8.316;2024-01-30T10:02:40;48.20;;;23.30;;
3625;SDS011;1827;50.534;8.316;2024-01-30T10:05:06;49.00;;;23.47;;
3625;SDS011;1827;50.534;8.316;2024-01-30T10:07:32;49.33;;;24.53;;
3625;SDS011;1827;50.534;8.316;2024-01-30T10:09:59;46.93;;;23.23;;
3625;SDS011;1827;50.534;8.316;2024-01-30T10:12:29;54.63;;;23.50;;
3625;SDS011;1827;50.534;8.316;2024-01-30T10:14:56;48.60;;;24.13;;
3625;SDS011;1827;50.534;8.316;2024-01-30T10:17:24;53.20;;;25.83;;
3625;SDS011;1827;50.534;8.316;2024-01-30T10:19:50;52.03;;;25.13;;
3625;SDS011;1827;50.534;8.316;2024-01-30T10:22:20;57.40;;;26.83;;
3625;SDS011;1827;50.534;8.316;2024-01-30T10:24:45;55.57;;;26.17;;
3625;SDS011;1827;50.534;8.316;2024-01-30T10:27:11;54.50;;;25.70;;
3625;SDS011;1827;50.534;8.316;2024-01-30T10:29:37;56.37;;;26.17;;
3625;SDS011;1827;50.534;8.316;2024-01-30T10:32:03;104.63;;;48.90;;
3625;SDS011;1827;50.534;8.316;2024-01-30T10:34:30;60.60;;;29.70;;
3625;SDS011;1827;50.534;8.316;2024-01-30T10:37:07;52.97;;;26.33;;
3625;SDS011;1827;50.534;8.316;2024-01-30T10:39:42;82.90;;;38.50;;
3625;SDS011;1827;50.534;8.316;2024-01-30T10:42:13;72.83;;;34.10;;
3625;SDS011;1827;50.534;8.316;2024-01-30T10:47:26;54.43;;;26.47;;
3625;SDS011;1827;50.534;8.316;2024-01-30T10:49:54;57.40;;;26.80;;
3625;SDS011;1827;50.534;8.316;2024-01-30T10:52:21;47.97;;;23.70;;
3625;SDS011;1827;50.534;8.316;2024-01-30T10:54:48;49.63;;;24.43;;
3625;SDS011;1827;50.534;8.316;2024-01-30T10:57:16;51.73;;;24.33;;
3625;SDS011;1827;50.534;8.316;2024-01-30T10:59:43;53.50;;;24.37;;
3625;SDS011;1827;50.534;8.316;2024-01-30T11:02:09;55.30;;;25.80;;
3625;SDS011;1827;50.534;8.316;2024-01-30T11:04:36;55.43;;;25.70;;
3625;SDS011;1827;50.534;8.316;2024-01-30T11:07:13;48.60;;;24.63;;
3625;SDS011;1827;50.534;8.316;2024-01-30T11:09:40;57.53;;;25.73;;
3625;SDS011;1827;50.534;8.316;2024-01-30T11:12:11;54.30;;;25.50;;
3625;SDS011;1827;50.534;8.316;2024-01-30T11:14:37;50.27;;;24.50;;
3625;SDS011;1827;50.534;8.316;2024-01-30T11:17:05;44.57;;;22.70;;
3625;SDS011;1827;50.534;8.316;2024-01-30T11:19:31;48.07;;;23.27;;
3625;SDS011;1827;50.534;8.316;2024-01-30T11:21:57;48.80;;;23.50;;
3625;SDS011;1827;50.534;8.316;2024-01-30T11:24:25;46.13;;;23.80;;
3625;SDS011;1827;50.534;8.316;2024-01-30T11:26:58;49.80;;;23.47;;
3625;SDS011;1827;50.534;8.316;2024-01-30T11:29:24;56.33;;;24.47;;
3625;SDS011;1827;50.534;8.316;2024-01-30T11:31:53;52.03;;;25.27;;
3625;SDS011;1827;50.534;8.316;2024-01-30T11:34:23;52.63;;;24.10;;
3625;SDS011;1827;50.534;8.316;2024-01-30T11:36:52;48.37;;;24.00;;
3625;SDS011;1827;50.534;8.316;2024-01-30T11:39:24;55.60;;;24.03;;
3625;SDS011;1827;50.534;8.316;2024-01-30T11:41:51;53.80;;;25.00;;
3625;SDS011;1827;50.534;8.316;2024-01-30T11:44:20;47.53;;;24.27;;
3625;SDS011;1827;50.534;8.316;2024-01-30T11:46:52;50.70;;;23.33;;
3625;SDS011;1827;50.534;8.316;2024-01-30T11:49:18;49.23;;;25.93;;
3625;SDS011;1827;50.534;8.316;2024-01-30T11:51:47;54.63;;;25.33;;
3625;SDS011;1827;50.534;8.316;2024-01-30T11:54:17;49.63;;;23.97;;
3625;SDS011;1827;50.534;8.316;2024-01-30T11:56:43;50.80;;;24.20;;
3625;SDS011;1827;50.534;8.316;2024-01-30T11:59:08;52.10;;;24.83;;
3625;SDS011;1827;50.534;8.316;2024-01-30T12:01:35;52.30;;;23.83;;
3625;SDS011;1827;50.534;8.316;2024-01-30T12:04:03;58.47;;;23.87;;
3625;SDS011;1827;50.534;8.316;2024-01-30T12:06:33;46.57;;;23.10;;
3625;SDS011;1827;50.534;8.316;2024-01-30T12:09:02;49.77;;;23.43;;
3625;SDS011;1827;50.534;8.316;2024-01-30T12:11:43;52.40;;;23.87;;
3625;SDS011;1827;50.534;8.316;2024-01-30T12:14:09;49.40;;;25.00;;
3625;SDS011;1827;50.534;8.316;2024-01-30T12:16:36;65.20;;;27.47;;
3625;SDS011;1827;50.534;8.316;2024-01-30T12:19:03;65.33;;;26.13;;
3625;SDS011;1827;50.534;8.316;2024-01-30T12:21:29;49.47;;;24.93;;
3625;SDS011;1827;50.534;8.316;2024-01-30T12:23:59;46.10;;;25.03;;
3625;SDS011;1827;50.534;8.316;2024-01-30T12:26:27;54.30;;;26.30;;
3625;SDS011;1827;50.534;8.316;2024-01-30T12:28:54;50.80;;;25.73;;
3625;SDS011;1827;50.534;8.316;2024-01-30T12:31:27;50.63;;;25.40;;
3625;SDS011;1827;50.534;8.316;2024-01-30T12:33:54;52.10;;;25.33;;
3625;SDS011;1827;50.534;8.316;2024-01-30T12:36:25;53.60;;;25.67;;
3625;SDS011;1827;50.534;8.316;2024-01-30T12:38:51;48.63;;;23.47;;
3625;SDS011;1827;50.534;8.316;2024-01-30T12:41:17;53.07;;;25.23;;
3625;SDS011;1827;50.534;8.316;2024-01-30T12:43:45;58.93;;;26.70;;
3625;SDS011;1827;50.534;8.316;2024-01-30T12:46:12;50.33;;;25.33;;
3625;SDS011;1827;50.534;8.316;2024-01-30T12:48:38;52.70;;;26.43;;
3625;SDS011;1827;50.534;8.316;2024-01-30T12:51:04;52.33;;;25.23;;
3625;SDS011;1827;50.534;8.316;2024-01-30T12:53:30;52.93;;;25.90;;
3625;SDS011;1827;50.534;8.316;2024-01-30T12:56:02;55.07;;;26.27;;
3625;SDS011;1827;50.534;8.316;2024-01-30T12:58:35;50.33;;;23.80;;
3625;SDS011;1827;50.534;8.316;2024-01-30T13:01:06;51.30;;;24.90;;
3625;SDS011;1827;50.534;8.316;2024-01-30T13:03:35;50.23;;;26.33;;
3625;SDS011;1827;50.534;8.316;2024-01-30T13:06:04;51.13;;;24.73;;
3625;SDS011;1827;50.534;8.316;2024-01-30T13:08:31;48.60;;;24.40;;
3625;SDS011;1827;50.534;8.316;2024-01-30T13:10:57;68.40;;;25.37;;
3625;SDS011;1827;50.534;8.316;2024-01-30T13:13:29;48.63;;;24.77;;
3625;SDS011;1827;50.534;8.316;2024-01-30T13:15:55;50.20;;;24.30;;
3625;SDS011;1827;50.534;8.316;2024-01-30T13:18:29;63.57;;;30.13;;
3625;SDS011;1827;50.534;8.316;2024-01-30T13:20:55;57.97;;;27.60;;
3625;SDS011;1827;50.534;8.316;2024-01-30T13:23:21;51.93;;;25.43;;
3625;SDS011;1827;50.534;8.316;2024-01-30T13:25:46;49.33;;;25.33;;
3625;SDS011;1827;50.534;8.316;2024-01-30T13:28:14;51.37;;;26.57;;
3625;SDS011;1827;50.534;8.316;2024-01-30T13:30:40;59.10;;;28.23;;
3625;SDS011;1827;50.534;8.316;2024-01-30T13:33:06;58.93;;;25.50;;
3625;SDS011;1827;50.534;8.316;2024-01-30T13:35:35;51.00;;;24.23;;
3625;SDS011;1827;50.534;8.316;2024-01-30T13:38:00;57.60;;;24.97;;
3625;SDS011;1827;50.534;8.316;2024-01-30T13:40:26;49.50;;;26.23;;
3625;SDS011;1827;50.534;8.316;2024-01-30T13:42:52;55.03;;;28.60;;
3625;SDS011;1827;50.534;8.316;2024-01-30T13:45:18;53.47;;;26.10;;
3625;SDS011;1827;50.534;8.316;2024-01-30T13:47:47;53.23;;;25.70;;
3625;SDS011;1827;50.534;8.316;2024-01-30T13:50:22;47.27;;;24.20;;
3625;SDS011;1827;50.534;8.316;2024-01-30T13:52:48;48.63;;;24.97;;
3625;SDS011;1827;50.534;8.316;2024-01-30T13:55:16;47.30;;;23.77;;
3625;SDS011;1827;50.534;8.316;2024-01-30T13:57:42;55.30;;;24.70;;
3625;SDS011;1827;50.534;8.316;2024-01-30T14:00:11;53.23;;;26.00;;
3625;SDS011;1827;50.534;8.316;2024-01-30T14:02:41;49.97;;;26.03;;
3625;SDS011;1827;50.534;8.316;2024-01-30T14:05:07;58.10;;;25.53;;
3625;SDS011;1827;50.534;8.316;2024-01-30T14:07:35;70.33;;;28.73;;
3625;SDS011;1827;50.534;8.316;2024-01-30T14:10:01;71.03;;;28.40;;
3625;SDS011;1827;50.534;8.316;2024-01-30T14:12:27;54.77;;;27.07;;
3625;SDS011;1827;50.534;8.316;2024-01-30T14:14:53;60.03;;;26.67;;
3625;SDS011;1827;50.534;8.316;2024-01-30T14:17:19;51.10;;;26.60;;
3625;SDS011;1827;50.534;8.316;2024-01-30T14:19:44;54.60;;;26.40;;
3625;SDS011;1827;50.534;8.316;2024-01-30T14:22:10;50.90;;;27.20;;
3625;SDS011;1827;50.534;8.316;2024-01-30T14:24:36;57.77;;;28.57;;
3625;SDS011;1827;50.534;8.316;2024-01-30T14:27:02;57.77;;;27.93;;
3625;SDS011;1827;50.534;8.316;2024-01-30T14:29:28;58.23;;;29.77;;
3625;SDS011;1827;50.534;8.316;2024-01-30T14:31:54;56.67;;;27.83;;
3625;SDS011;1827;50.534;8.316;2024-01-30T14:34:20;61.07;;;26.87;;
3625;SDS011;1827;50.534;8.316;2024-01-30T14:36:45;55.47;;;28.20;;
3625;SDS011;1827;50.534;8.316;2024-01-30T14:39:11;59.10;;;28.60;;
3625;SDS011;1827;50.534;8.316;2024-01-30T14:41:37;56.03;;;29.13;;
3625;SDS011;1827;50.534;8.316;2024-01-30T14:44:03;56.77;;;27.70;;
3625;SDS011;1827;50.534;8.316;2024-01-30T14:46:30;58.80;;;28.17;;
3625;SDS011;1827;50.534;8.316;2024-01-30T14:48:56;72.97;;;28.37;;
3625;SDS011;1827;50.534;8.316;2024-01-30T14:51:22;60.70;;;28.53;;
3625;SDS011;1827;50.534;8.316;2024-01-30T14:53:48;68.67;;;30.47;;
3625;SDS011;1827;50.534;8.316;2024-01-30T14:56:14;55.67;;;28.13;;
3625;SDS011;1827;50.534;8.316;2024-01-30T14:58:39;60.47;;;30.07;;
3625;SDS011;1827;50.534;8.316;2024-01-30T15:01:06;72.00;;;29.37;;
3625;SDS011;1827;50.534;8.316;2024-01-30T15:03:32;61.73;;;29.20;;
3625;SDS011;1827;50.534;8.316;2024-01-30T15:05:58;58.60;;;30.80;;
3625;SDS011;1827;50.534;8.316;2024-01-30T15:08:24;61.20;;;30.40;;
3625;SDS011;1827;50.534;8.316;2024-01-30T15:10:49;61.27;;;30.40;;
3625;SDS011;1827;50.534;8.316;2024-01-30T15:13:16;58.67;;;30.00;;
3625;SDS011;1827;50.534;8.316;2024-01-30T15:15:42;66.23;;;29.90;;
3625;SDS011;1827;50.534;8.316;2024-01-30T15:18:07;57.67;;;29.77;;
3625;SDS011;1827;50.534;8.316;2024-01-30T15:20:36;56.03;;;29.87;;
3625;SDS011;1827;50.534;8.316;2024-01-30T15:23:01;60.23;;;29.93;;
3625;SDS011;1827;50.534;8.316;2024-01-30T15:25:28;69.80;;;30.60;;
3625;SDS011;1827;50.534;8.316;2024-01-30T15:27:54;61.70;;;30.40;;
3625;SDS011;1827;50.534;8.316;2024-01-30T15:30:20;62.63;;;30.03;;